Time;durP1;ratioP1;P1;durP2;ratioP2;P2;SDS_P1;SDS_P2;PMS_P1;PMS_P2;Temp;Humidity;BMP_temperature;BMP_pressure;BME280_temperature;BME280_humidity;BME280_pressure;Samples;Min_cycle;Max_cycle;Signal;HPM_P1;HPM_P2
2022/04/22 00:00:48;;;;;;;8.35;2.15;;;7.60;76.80;;;;;;4975559;28;20027;-79
2022/04/22 00:03:14;;;;;;;3.70;1.85;;;7.60;77.10;;;;;;4974861;28;20034;-79
2022/04/22 00:05:39;;;;;;;7.30;2.40;;;7.50;77.20;;;;;;4970916;28;20030;-79
2022/04/22 00:08:05;;;;;;;3.33;2.10;;;7.50;77.80;;;;;;4970744;28;20125;-79
2022/04/22 00:10:31;;;;;;;4.32;1.92;;;7.40;77.50;;;;;;4973994;28;20045;-79
2022/04/22 00:12:57;;;;;;;6.00;2.08;;;7.30;77.60;;;;;;4987797;28;20042;-79
2022/04/22 00:15:23;;;;;;;5.35;2.10;;;7.30;77.80;;;;;;4966257;28;20030;-79
2022/04/22 00:17:49;;;;;;;3.80;2.20;;;7.20;78.10;;;;;;4970403;28;20030;-79
2022/04/22 00:20:14;;;;;;;6.20;2.75;;;7.20;78.50;;;;;;4975799;28;20027;-79
2022/04/22 00:22:41;;;;;;;5.85;2.30;;;7.10;78.70;;;;;;4970828;28;20381;-79
2022/04/22 00:25:12;;;;;;;7.40;2.47;;;7.10;78.70;;;;;;4973007;28;20031;-79
2022/04/22 00:27:39;;;;;;;5.75;2.13;;;7.00;78.80;;;;;;4988456;28;20058;-79
2022/04/22 00:30:06;;;;;;;6.28;2.08;;;6.90;79.20;;;;;;4978672;28;20043;-79
2022/04/22 00:32:33;;;;;;;6.22;2.55;;;6.90;79.60;;;;;;4973514;28;20042;-79
2022/04/22 00:34:59;;;;;;;5.80;2.53;;;6.90;79.80;;;;;;4975430;28;20042;-79
2022/04/22 00:37:25;;;;;;;7.75;2.80;;;6.80;80.10;;;;;;4971934;28;20034;-79
2022/04/22 00:39:50;;;;;;;4.45;2.40;;;6.80;80.20;;;;;;4989441;28;20022;-79
2022/04/22 00:42:17;;;;;;;7.57;2.15;;;6.70;80.40;;;;;;4973355;28;20486;-79
2022/04/22 00:44:42;;;;;;;7.60;2.65;;;6.80;80.20;;;;;;4958096;28;20169;-79
2022/04/22 00:47:08;;;;;;;3.92;2.28;;;6.70;80.50;;;;;;4985519;28;20113;-79
2022/04/22 00:49:33;;;;;;;4.05;2.42;;;6.70;80.50;;;;;;4974257;28;20114;-79
2022/04/22 00:51:59;;;;;;;3.90;2.38;;;6.70;80.70;;;;;;4972029;28;20065;-79
2022/04/22 00:54:25;;;;;;;5.78;2.47;;;6.60;80.60;;;;;;4984426;28;20066;-79
2022/04/22 00:56:51;;;;;;;3.95;1.95;;;6.60;80.80;;;;;;4973609;28;20551;-79
2022/04/22 00:59:18;;;;;;;3.25;2.10;;;6.50;80.70;;;;;;4988223;28;20018;-79
2022/04/22 01:01:43;;;;;;;5.88;2.58;;;6.50;80.90;;;;;;4968915;28;20038;-79
2022/04/22 01:09:51;;;;;;;5.30;2.60;;;6.40;81.60;;;;;;4988234;28;20591;-79
2022/04/22 01:12:18;;;;;;;6.25;2.80;;;6.40;81.80;;;;;;4972209;28;20482;-79
2022/04/22 01:14:44;;;;;;;7.15;3.10;;;6.40;81.80;;;;;;4990082;28;20085;-79
2022/04/22 01:17:10;;;;;;;7.78;2.88;;;6.30;81.90;;;;;;4969565;28;20030;-79
2022/04/22 01:19:36;;;;;;;4.75;2.22;;;6.30;82.10;;;;;;4989586;28;20500;-79
2022/04/22 01:22:02;;;;;;;4.63;2.78;;;6.30;82.00;;;;;;4987222;28;20038;-79
2022/04/22 01:24:28;;;;;;;6.50;2.65;;;6.30;82.20;;;;;;4988607;28;20030;-79
2022/04/22 01:26:55;;;;;;;6.72;3.05;;;6.30;82.30;;;;;;4985033;28;20037;-79
2022/04/22 01:29:21;;;;;;;7.13;3.03;;;6.20;82.60;;;;;;4984904;28;20026;-79
2022/04/22 01:31:47;;;;;;;6.63;2.85;;;6.10;82.70;;;;;;4971553;28;20027;-79
2022/04/22 01:34:13;;;;;;;7.15;3.55;;;6.10;83.10;;;;;;4987461;28;20149;-79
2022/04/22 01:36:38;;;;;;;6.68;3.00;;;6.00;83.40;;;;;;4986514;28;20117;-79
2022/04/22 01:39:04;;;;;;;7.18;3.20;;;6.00;83.50;;;;;;4987996;28;20508;-79
2022/04/22 01:41:30;;;;;;;7.68;3.60;;;6.00;83.90;;;;;;4974876;28;20165;-79
2022/04/22 01:43:57;;;;;;;7.38;3.35;;;5.90;83.90;;;;;;4987742;28;20385;-79
2022/04/22 01:46:23;;;;;;;5.72;3.20;;;6.00;84.10;;;;;;4972448;28;21504;-79
2022/04/22 01:48:48;;;;;;;5.75;3.03;;;5.90;84.00;;;;;;4988191;28;20062;-79
2022/04/22 01:51:14;;;;;;;10.68;3.80;;;5.90;84.20;;;;;;4970234;28;20029;-79
2022/04/22 01:53:39;;;;;;;5.97;3.00;;;5.80;84.30;;;;;;4971026;28;20062;-79
2022/04/22 01:56:05;;;;;;;7.53;3.75;;;5.80;84.60;;;;;;4970670;28;20101;-79
2022/04/22 01:58:32;;;;;;;5.20;3.08;;;5.80;84.70;;;;;;4968683;28;20026;-79
2022/04/22 02:00:58;;;;;;;8.02;3.40;;;5.80;84.70;;;;;;4974070;28;20030;-79
2022/04/22 02:03:23;;;;;;;7.32;3.80;;;5.80;84.90;;;;;;4989219;28;20026;-79
2022/04/22 02:05:49;;;;;;;10.98;3.78;;;5.80;85.00;;;;;;4969598;28;20537;-80
2022/04/22 02:08:15;;;;;;;9.18;4.20;;;5.70;85.10;;;;;;4970573;28;20041;-80
2022/04/22 02:10:43;;;;;;;8.27;3.90;;;5.70;85.40;;;;;;4971384;28;20035;-80
2022/04/22 02:13:09;;;;;;;10.55;3.92;;;5.60;85.50;;;;;;4989004;28;20089;-80
2022/04/22 02:15:35;;;;;;;8.65;3.83;;;5.70;85.60;;;;;;4973076;28;20025;-80
2022/04/22 02:18:00;;;;;;;7.85;3.55;;;5.60;85.80;;;;;;4993042;28;20027;-80
2022/04/22 02:20:26;;;;;;;8.40;4.18;;;5.70;86.10;;;;;;4992594;28;20078;-80
2022/04/22 02:22:52;;;;;;;9.48;3.85;;;5.70;86.10;;;;;;4974030;28;20041;-80
2022/04/22 02:25:17;;;;;;;9.13;4.10;;;5.60;86.20;;;;;;4991345;28;20026;-80
2022/04/22 02:30:28;;;;;;;7.57;3.90;;;5.60;86.40;;;;;;4992223;28;20397;-80
2022/04/22 02:32:54;;;;;;;8.20;3.97;;;5.50;86.50;;;;;;4982251;28;20022;-80
2022/04/22 02:35:21;;;;;;;6.18;3.78;;;5.50;86.70;;;;;;4988864;28;20540;-80
2022/04/22 02:37:49;;;;;;;8.55;4.35;;;5.50;86.70;;;;;;4991611;28;20026;-80
2022/04/22 02:45:43;;;;;;;5.60;3.58;;;5.40;87.10;;;;;;4985547;28;20116;-79
2022/04/22 02:48:09;;;;;;;8.88;4.00;;;5.40;87.20;;;;;;4981122;28;20486;-79
2022/04/22 02:50:34;;;;;;;9.45;3.70;;;5.50;87.20;;;;;;4973874;28;20390;-80
2022/04/22 02:53:00;;;;;;;8.23;4.28;;;5.40;87.20;;;;;;4973331;28;20023;-80
2022/04/22 02:55:25;;;;;;;6.50;3.58;;;5.40;87.20;;;;;;4975206;28;20038;-80
2022/04/22 02:57:51;;;;;;;10.95;4.30;;;5.30;87.40;;;;;;4973991;28;20404;-80
2022/04/22 03:00:17;;;;;;;7.43;4.20;;;5.20;87.60;;;;;;4989088;28;20036;-80
2022/04/22 03:02:42;;;;;;;6.55;4.10;;;5.20;87.70;;;;;;4986209;28;20486;-79
2022/04/22 03:05:10;;;;;;;9.35;4.40;;;5.10;87.90;;;;;;4992260;28;20038;-80
2022/04/22 03:07:35;;;;;;;11.25;4.57;;;5.20;88.10;;;;;;4989225;28;20049;-80
2022/04/22 03:10:01;;;;;;;10.18;4.78;;;5.20;88.10;;;;;;4984303;28;20039;-80
2022/04/22 03:12:26;;;;;;;11.57;4.40;;;5.20;88.20;;;;;;4991156;28;20030;-80
2022/04/22 03:14:52;;;;;;;12.30;5.10;;;5.10;88.10;;;;;;4975186;28;20026;-80
2022/04/22 03:17:19;;;;;;;8.70;4.85;;;5.10;88.60;;;;;;4973506;28;20023;-80
2022/04/22 03:19:44;;;;;;;7.88;4.57;;;5.10;88.50;;;;;;4990341;28;20243;-80
2022/04/22 03:22:10;;;;;;;9.20;4.70;;;5.10;88.60;;;;;;4989746;28;20026;-80
2022/04/22 03:24:36;;;;;;;10.63;4.90;;;5.00;88.70;;;;;;4972228;28;20494;-79
2022/04/22 03:27:02;;;;;;;9.07;4.57;;;5.00;88.90;;;;;;4973718;28;20405;-79
2022/04/22 03:29:28;;;;;;;11.82;4.60;;;5.00;88.90;;;;;;4971761;28;20038;-80
2022/04/22 03:31:54;;;;;;;10.00;4.75;;;5.00;89.00;;;;;;4972353;28;20034;-80
2022/04/22 03:34:19;;;;;;;7.88;4.65;;;5.10;89.00;;;;;;4992634;28;20026;-80
2022/04/22 03:36:45;;;;;;;10.23;4.93;;;5.00;89.00;;;;;;4973038;28;20027;-80
2022/04/22 03:39:11;;;;;;;11.52;4.88;;;5.00;89.20;;;;;;4974159;28;20066;-80
2022/04/22 03:41:38;;;;;;;8.45;4.85;;;4.90;89.20;;;;;;4993318;28;20156;-80
2022/04/22 03:44:03;;;;;;;7.68;4.60;;;4.90;89.30;;;;;;4974854;28;20177;-80
2022/04/22 03:46:30;;;;;;;10.40;5.28;;;4.80;89.40;;;;;;4975782;28;20548;-80
2022/04/22 03:48:56;;;;;;;13.95;5.35;;;4.80;89.50;;;;;;4976407;28;20041;-79
2022/04/22 03:51:21;;;;;;;9.63;5.05;;;4.70;89.70;;;;;;4991913;28;20396;-80
2022/04/22 03:53:48;;;;;;;14.23;5.80;;;4.80;89.90;;;;;;4969802;28;20027;-80
2022/04/22 03:58:59;;;;;;;10.85;5.32;;;4.80;89.80;;;;;;4993133;28;20029;-80
2022/04/22 04:01:24;;;;;;;11.57;5.65;;;4.70;89.70;;;;;;4989117;28;20046;-80
2022/04/22 04:03:50;;;;;;;10.32;4.68;;;4.70;90.00;;;;;;4978420;28;20033;-79
2022/04/22 04:06:15;;;;;;;13.55;5.07;;;4.60;90.10;;;;;;4988948;28;20030;-80
2022/04/22 04:08:41;;;;;;;13.48;5.10;;;4.60;90.20;;;;;;4976253;28;20030;-80
2022/04/22 04:16:25;;;;;;;10.52;5.57;;;4.60;90.70;;;;;;4989011;28;20031;-80
2022/04/22 04:18:50;;;;;;;13.10;5.40;;;4.60;90.50;;;;;;4964720;28;20018;-80
2022/04/22 04:24:00;;;;;;;11.50;5.38;;;4.70;90.70;;;;;;4990970;28;20037;-80
2022/04/22 04:26:26;;;;;;;10.00;5.10;;;4.70;90.60;;;;;;4989537;28;20030;-80
2022/04/22 04:28:53;;;;;;;10.23;4.97;;;4.80;90.60;;;;;;4991961;28;20552;-80
2022/04/22 04:31:19;;;;;;;10.02;5.30;;;4.90;90.70;;;;;;4983441;28;20062;-80
2022/04/22 04:33:46;;;;;;;11.95;5.15;;;4.90;90.70;;;;;;4970842;28;20405;-80
2022/04/22 04:36:12;;;;;;;10.93;5.05;;;4.90;90.50;;;;;;4989483;28;20489;-80
2022/04/22 04:38:39;;;;;;;10.63;5.32;;;4.80;90.40;;;;;;4986439;28;20053;-80
2022/04/22 04:41:07;;;;;;;11.48;5.03;;;4.90;90.50;;;;;;4966133;28;20155;-80
2022/04/22 04:43:33;;;;;;;15.65;5.25;;;4.90;90.60;;;;;;4986883;28;20026;-81
2022/04/22 04:45:59;;;;;;;10.40;4.85;;;4.90;90.40;;;;;;4973955;28;20045;-80
2022/04/22 04:48:24;;;;;;;11.98;4.97;;;5.10;90.60;;;;;;4974589;28;20481;-80
2022/04/22 04:50:51;;;;;;;14.68;5.35;;;5.00;90.30;;;;;;4972230;28;20125;-80
2022/04/22 04:53:18;;;;;;;12.63;5.38;;;5.00;90.20;;;;;;4989204;28;20034;-79
2022/04/22 04:55:44;;;;;;;13.48;5.28;;;5.10;90.30;;;;;;4990229;28;20482;-80
2022/04/22 04:58:10;;;;;;;12.15;5.50;;;5.10;90.40;;;;;;4983647;28;20026;-80
2022/04/22 05:00:36;;;;;;;10.35;5.35;;;5.10;90.30;;;;;;4971045;28;20026;-79
2022/04/22 05:03:01;;;;;;;12.57;6.07;;;5.10;90.30;;;;;;4988988;28;20046;-79
2022/04/22 05:05:27;;;;;;;20.15;6.05;;;5.10;90.20;;;;;;4979869;28;20489;-79
2022/04/22 05:07:58;;;;;;;11.65;6.40;;;5.10;90.20;;;;;;4969878;28;20030;-79
2022/04/22 05:10:26;;;;;;;11.23;5.63;;;5.20;90.20;;;;;;4970006;28;20066;-80
2022/04/22 05:12:51;;;;;;;13.30;6.03;;;5.20;90.20;;;;;;4967185;28;20478;-79
2022/04/22 05:15:18;;;;;;;11.82;5.55;;;5.40;90.30;;;;;;4982537;28;20031;-79
2022/04/22 05:17:45;;;;;;;11.25;5.65;;;5.30;90.00;;;;;;4981956;28;20351;-80
2022/04/22 05:20:13;;;;;;;13.70;5.68;;;5.40;90.10;;;;;;4989141;28;20476;-79
2022/04/22 05:22:39;;;;;;;15.60;5.47;;;5.40;89.90;;;;;;4988015;28;20037;-79
2022/04/22 05:25:06;;;;;;;10.77;5.18;;;5.50;90.00;;;;;;4988705;28;20077;-79
2022/04/22 05:27:32;;;;;;;11.82;5.40;;;5.60;89.80;;;;;;4990772;28;20034;-79
2022/04/22 05:32:47;;;;;;;9.38;5.00;;;5.60;89.60;;;;;;4989075;28;20104;-79
2022/04/22 05:35:14;;;;;;;10.02;4.75;;;5.70;89.80;;;;;;4991156;28;20026;-79
2022/04/22 05:37:44;;;;;;;9.50;4.93;;;5.80;89.60;;;;;;4970386;28;20176;-79
2022/04/22 05:40:11;;;;;;;13.90;4.85;;;5.80;89.50;;;;;;4970628;28;20022;-79
2022/04/22 05:42:38;;;;;;;15.27;5.30;;;5.90;89.40;;;;;;4983214;28;20066;-79
2022/04/22 05:45:06;;;;;;;13.57;5.22;;;6.00;89.20;;;;;;4985036;28;20037;-79
2022/04/22 05:47:31;;;;;;;10.35;5.03;;;6.10;89.00;;;;;;4971841;28;20031;-79
2022/04/22 05:49:57;;;;;;;10.13;5.55;;;6.10;88.90;;;;;;4973774;28;20146;-79
2022/04/22 05:52:22;;;;;;;13.23;4.75;;;6.20;88.60;;;;;;4970081;28;20085;-79
2022/04/22 05:54:48;;;;;;;12.63;5.50;;;6.30;88.50;;;;;;4971894;28;20023;-79
2022/04/22 05:57:13;;;;;;;13.50;4.88;;;6.30;87.90;;;;;;4992339;28;20054;-79
2022/04/22 05:59:39;;;;;;;9.93;4.35;;;6.40;87.90;;;;;;4973173;28;20022;-78
2022/04/22 06:02:05;;;;;;;11.75;4.40;;;6.50;87.80;;;;;;4973206;28;20058;-78
2022/04/22 06:04:30;;;;;;;10.95;4.50;;;6.60;87.70;;;;;;4990617;28;20057;-78
2022/04/22 06:06:56;;;;;;;13.32;4.68;;;6.60;87.50;;;;;;4980716;28;20618;-78
2022/04/22 06:12:06;;;;;;;9.68;5.10;;;6.90;87.10;;;;;;4991626;28;20041;-79
2022/04/22 06:14:31;;;;;;;9.10;4.78;;;7.10;87.00;;;;;;4988580;28;20474;-79
2022/04/22 06:16:57;;;;;;;7.25;4.13;;;7.20;86.50;;;;;;4971827;28;20045;-79
2022/04/22 06:19:22;;;;;;;10.80;4.90;;;7.30;86.40;;;;;;4973730;28;20241;-79
2022/04/22 06:21:48;;;;;;;13.30;5.15;;;7.50;85.70;;;;;;4988177;28;20038;-79
2022/04/22 06:24:13;;;;;;;10.85;4.45;;;7.60;85.20;;;;;;4973049;28;20076;-79
2022/04/22 06:26:38;;;;;;;11.93;4.40;;;7.60;84.80;;;;;;4989170;28;20110;-79
2022/04/22 06:29:04;;;;;;;11.00;4.30;;;7.70;84.30;;;;;;4973626;28;20556;-79
2022/04/22 06:31:30;;;;;;;11.35;4.55;;;7.90;84.50;;;;;;4977002;28;20077;-79
2022/04/22 06:33:56;;;;;;;9.38;4.15;;;7.90;83.80;;;;;;4971513;28;20035;-79
2022/04/22 06:36:28;;;;;;;9.18;3.75;;;7.80;82.90;;;;;;4991083;28;20030;-80
2022/04/22 06:38:58;;;;;;;9.23;3.80;;;8.10;83.40;;;;;;4972601;28;20026;-79
2022/04/22 06:46:54;;;;;;;7.65;4.25;;;8.60;81.90;;;;;;4990153;28;20097;-79
2022/04/22 06:49:20;;;;;;;8.68;4.43;;;8.80;81.60;;;;;;4992262;28;20664;-79
2022/04/22 06:51:46;;;;;;;8.75;3.95;;;8.80;81.30;;;;;;4987493;28;20026;-80
2022/04/22 06:54:12;;;;;;;10.93;4.43;;;8.90;80.50;;;;;;4991267;28;20061;-79
2022/04/22 06:56:39;;;;;;;11.50;4.18;;;9.10;80.60;;;;;;4976298;28;20022;-79
2022/04/22 06:59:05;;;;;;;10.35;4.25;;;9.30;79.90;;;;;;4981136;28;20042;-79
2022/04/22 07:01:31;;;;;;;8.35;4.40;;;9.40;78.90;;;;;;4994817;28;20174;-79
2022/04/22 07:03:57;;;;;;;10.05;4.07;;;9.60;78.40;;;;;;4985595;28;20509;-79
2022/04/22 07:06:24;;;;;;;7.78;3.72;;;9.80;78.30;;;;;;4994933;28;20034;-80
2022/04/22 07:08:49;;;;;;;10.82;4.13;;;9.80;77.90;;;;;;4987352;28;20053;-79
2022/04/22 07:11:22;;;;;;;8.88;4.00;;;10.00;77.70;;;;;;4977870;28;20066;-79
2022/04/22 07:13:48;;;;;;;10.77;3.85;;;9.90;76.40;;;;;;4993207;28;20400;-79
2022/04/22 07:16:16;;;;;;;7.53;3.70;;;10.20;76.80;;;;;;4977981;28;20027;-79
2022/04/22 07:18:42;;;;;;;6.63;3.42;;;10.20;76.10;;;;;;4978232;28;20489;-79
2022/04/22 07:21:08;;;;;;;9.02;4.05;;;10.40;74.80;;;;;;4991575;28;20030;-79
2022/04/22 07:23:34;;;;;;;9.15;4.32;;;10.40;74.80;;;;;;4992585;28;20031;-79
2022/04/22 07:26:01;;;;;;;7.88;3.80;;;10.50;74.70;;;;;;4994193;28;20035;-79
2022/04/22 07:28:29;;;;;;;7.78;3.67;;;10.70;74.20;;;;;;4991372;28;20034;-79
2022/04/22 07:30:57;;;;;;;6.63;3.28;;;10.80;73.90;;;;;;4981567;28;20034;-79
2022/04/22 07:33:22;;;;;;;9.32;3.92;;;10.70;73.50;;;;;;4995132;28;20143;-79
2022/04/22 07:35:48;;;;;;;9.30;4.03;;;10.80;73.20;;;;;;4976956;28;20050;-79
2022/04/22 07:38:14;;;;;;;7.38;3.95;;;11.00;72.80;;;;;;4993967;28;20382;-79
2022/04/22 07:40:42;;;;;;;9.43;3.80;;;11.10;72.60;;;;;;4992356;28;20026;-79
2022/04/22 07:48:37;;;;;;;7.90;3.85;;;11.60;70.80;;;;;;4978280;28;20053;-79
2022/04/22 07:51:02;;;;;;;9.50;4.15;;;11.60;70.70;;;;;;4975457;28;20022;-79
2022/04/22 07:53:27;;;;;;;9.52;4.30;;;12.00;71.50;;;;;;4981513;28;20038;-79
2022/04/22 07:55:53;;;;;;;10.00;3.72;;;12.20;70.60;;;;;;4987711;28;20018;-79
2022/04/22 07:58:19;;;;;;;10.40;3.78;;;12.40;69.70;;;;;;4976355;28;20054;-79
2022/04/22 08:00:45;;;;;;;10.07;4.00;;;12.70;69.00;;;;;;4995277;28;20477;-79
2022/04/22 08:03:17;;;;;;;10.40;3.60;;;12.80;67.20;;;;;;4977580;28;20038;-79
2022/04/22 08:05:43;;;;;;;6.90;3.88;;;13.00;67.40;;;;;;4982973;28;20515;-80
2022/04/22 08:08:09;;;;;;;9.05;3.78;;;13.00;66.70;;;;;;4979240;28;20048;-80
2022/04/22 08:10:36;;;;;;;6.60;3.42;;;13.20;67.10;;;;;;4981222;28;20089;-80
2022/04/22 08:13:04;;;;;;;8.20;3.72;;;13.40;66.10;;;;;;4979757;28;20026;-80
2022/04/22 08:15:30;;;;;;;6.90;3.72;;;13.50;65.20;;;;;;4976491;28;20030;-80
2022/04/22 08:17:55;;;;;;;9.70;3.58;;;13.50;63.60;;;;;;4975809;28;20045;-80
2022/04/22 08:20:21;;;;;;;6.50;3.20;;;13.40;64.70;;;;;;4974242;28;20038;-80
2022/04/22 08:22:46;;;;;;;10.98;3.95;;;13.30;64.80;;;;;;4991042;28;20560;-80
2022/04/22 08:25:15;;;;;;;10.98;3.47;;;13.90;65.30;;;;;;4977040;28;20169;-80
2022/04/22 08:27:41;;;;;;;9.05;3.40;;;14.10;63.30;;;;;;4995188;28;20077;-80
2022/04/22 08:30:08;;;;;;;6.07;3.42;;;14.30;63.40;;;;;;4989630;28;20475;-80
2022/04/22 08:32:34;;;;;;;7.25;3.03;;;14.40;63.60;;;;;;4993844;28;20088;-80
2022/04/22 08:35:00;;;;;;;7.32;3.78;;;14.50;62.50;;;;;;4993459;28;20378;-79
2022/04/22 08:37:25;;;;;;;9.40;3.88;;;14.40;63.00;;;;;;4975479;28;20018;-79
2022/04/22 08:39:51;;;;;;;8.80;3.47;;;14.40;60.80;;;;;;4976330;28;20143;-79
2022/04/22 08:42:18;;;;;;;8.50;3.40;;;14.60;60.70;;;;;;4990975;28;20072;-80
2022/04/22 08:44:45;;;;;;;9.10;3.65;;;14.80;62.10;;;;;;4973592;28;20390;-80
2022/04/22 08:50:09;;;;;;;9.85;3.78;;;14.80;60.60;;;;;;4986501;28;20461;-81
2022/04/22 08:52:36;;;;;;;11.38;3.65;;;14.70;59.60;;;;;;4985807;28;20037;-80
2022/04/22 08:55:04;;;;;;;8.77;2.90;;;14.80;60.40;;;;;;4993332;28;20557;-80
2022/04/22 08:57:30;;;;;;;8.30;3.25;;;15.20;59.70;;;;;;4976369;28;20094;-80
2022/04/22 09:00:01;;;;;;;8.75;3.45;;;15.40;57.90;;;;;;4969799;28;20114;-80
2022/04/22 09:02:27;;;;;;;7.38;3.20;;;15.50;59.90;;;;;;4989822;28;20042;-80
2022/04/22 09:04:52;;;;;;;8.25;3.28;;;15.30;58.90;;;;;;4992434;28;20557;-80
2022/04/22 09:07:19;;;;;;;9.30;3.33;;;15.40;57.50;;;;;;4983290;28;20049;-80
2022/04/22 09:09:49;;;;;;;7.22;2.97;;;15.80;58.00;;;;;;4987484;28;20512;-80
2022/04/22 09:12:21;;;;;;;7.88;3.55;;;15.60;56.00;;;;;;4975361;28;20441;-80
2022/04/22 09:14:49;;;;;;;9.02;3.60;;;15.80;57.70;;;;;;4977805;28;20032;-80
2022/04/22 09:17:16;;;;;;;7.10;2.80;;;15.60;58.60;;;;;;4971867;28;20038;-80
2022/04/22 09:19:44;;;;;;;7.00;2.80;;;16.40;57.20;;;;;;4989344;28;20037;-80
2022/04/22 09:22:10;;;;;;;9.23;2.97;;;15.80;57.00;;;;;;4975273;28;20041;-80
2022/04/22 09:24:55;;;;;;;9.50;3.33;;;15.90;56.20;;;;;;4985224;28;20038;-80
2022/04/22 09:27:35;;;;;;;6.40;3.00;;;16.00;54.90;;;;;;4989335;28;20034;-80
2022/04/22 09:30:09;;;;;;;5.67;2.90;;;16.00;54.90;;;;;;4974810;28;20054;-80
2022/04/22 09:32:39;;;;;;;9.13;3.08;;;16.10;55.30;;;;;;4994025;28;20496;-80
2022/04/22 09:35:10;;;;;;;6.72;3.03;;;16.20;54.70;;;;;;4973977;28;20023;-80
2022/04/22 09:43:35;;;;;;;6.93;3.00;;;16.00;56.30;;;;;;4984394;28;20037;-80
2022/04/22 09:46:02;;;;;;;6.68;3.50;;;16.10;54.50;;;;;;4991204;28;20053;-80
2022/04/22 09:48:40;;;;;;;8.55;2.78;;;16.40;55.00;;;;;;4990247;28;20027;-80
2022/04/22 09:51:24;;;;;;;6.28;3.03;;;16.70;54.40;;;;;;4973842;28;20030;-81
2022/04/22 09:54:03;;;;;;;7.85;2.83;;;17.00;53.40;;;;;;4982676;28;20030;-80
2022/04/22 09:56:29;;;;;;;11.13;2.97;;;17.30;53.20;;;;;;4990006;28;20022;-80
2022/04/22 09:58:58;;;;;;;7.32;2.83;;;17.50;53.50;;;;;;4976599;28;20081;-80
2022/04/22 10:01:25;;;;;;;7.30;3.60;;;17.30;53.20;;;;;;4976363;28;20050;-80
2022/04/22 10:03:51;;;;;;;9.00;4.38;;;17.40;52.70;;;;;;4994749;28;20105;-81
2022/04/22 10:06:18;;;;;;;10.35;4.88;;;17.70;51.90;;;;;;4976180;28;20058;-80
2022/04/22 10:08:46;;;;;;;7.63;3.65;;;17.80;52.70;;;;;;4990506;28;20478;-81
2022/04/22 10:11:14;;;;;;;7.43;3.42;;;17.80;51.10;;;;;;4981703;28;20098;-80
2022/04/22 10:13:47;;;;;;;8.95;3.25;;;17.40;52.20;;;;;;4979430;28;20034;-81
2022/04/22 10:16:14;;;;;;;8.48;4.05;;;17.80;51.90;;;;;;4994186;28;20541;-80
2022/04/22 10:18:41;;;;;;;7.47;4.00;;;18.00;52.30;;;;;;4976011;28;20125;-80
2022/04/22 10:21:07;;;;;;;10.52;3.97;;;18.30;52.30;;;;;;4975010;28;20065;-80
2022/04/22 10:23:33;;;;;;;6.72;3.53;;;17.10;51.50;;;;;;4972167;28;20141;-80
2022/04/22 10:25:59;;;;;;;11.65;3.78;;;17.50;52.80;;;;;;4973475;28;20026;-80
2022/04/22 10:28:27;;;;;;;7.82;3.50;;;18.00;52.60;;;;;;4975919;28;20030;-80
2022/04/22 10:30:54;;;;;;;7.53;3.63;;;18.10;52.30;;;;;;4988850;28;20026;-80
2022/04/22 10:33:27;;;;;;;7.15;3.78;;;18.60;51.20;;;;;;4992100;28;20022;-80
2022/04/22 10:35:59;;;;;;;9.93;3.95;;;18.50;51.10;;;;;;4977299;28;20387;-80
2022/04/22 10:38:38;;;;;;;7.38;3.33;;;18.50;50.10;;;;;;4984896;28;20038;-81
2022/04/22 10:41:16;;;;;;;12.07;3.72;;;18.40;50.70;;;;;;4986628;28;20034;-81
2022/04/22 10:43:41;;;;;;;9.52;3.97;;;18.20;50.80;;;;;;4973720;28;20036;-81
2022/04/22 10:49:12;;;;;;;7.75;3.38;;;18.50;50.50;;;;;;4981598;28;20073;-81
2022/04/22 10:52:19;;;;;;;5.78;2.88;;;18.50;49.80;;;;;;4990839;28;20029;-79
2022/04/22 10:54:51;;;;;;;10.43;3.08;;;18.50;49.30;;;;;;4909979;29;20115;-78
2022/04/22 10:57:18;;;;;;;10.07;3.60;;;18.40;51.80;;;;;;4966979;28;20054;-78
2022/04/22 10:59:44;;;;;;;5.40;3.20;;;18.90;49.90;;;;;;4989856;28;20105;-78
2022/04/22 11:02:34;;;;;;;8.98;3.78;;;19.00;48.30;;;;;;4989604;28;20038;-78
2022/04/22 11:05:21;;;;;;;9.57;3.33;;;18.90;50.00;;;;;;4970546;28;20039;-78
2022/04/22 11:07:58;;;;;;;9.40;3.88;;;19.30;48.00;;;;;;4985312;28;20148;-78
2022/04/22 11:10:46;;;;;;;6.32;3.50;;;18.90;48.20;;;;;;4986863;28;20081;-78
2022/04/22 11:13:29;;;;;;;7.70;3.70;;;19.00;48.70;;;;;;4984583;28;20030;-78
2022/04/22 11:16:18;;;;;;;7.15;3.33;;;19.10;49.30;;;;;;4975369;28;20027;-79
2022/04/22 11:18:45;;;;;;;7.28;3.33;;;19.00;49.90;;;;;;4978762;28;20038;-79
2022/04/22 11:21:19;;;;;;;6.90;3.03;;;19.40;47.90;;;;;;4990921;28;20019;-79
2022/04/22 11:23:45;;;;;;;10.73;2.72;;;19.60;46.20;;;;;;4987859;28;20122;-79
2022/04/22 11:26:14;;;;;;;6.38;2.45;;;19.60;47.60;;;;;;4990530;28;20149;-80
2022/04/22 11:28:41;;;;;;;5.80;2.72;;;20.10;46.00;;;;;;4991394;28;20106;-80
2022/04/22 11:31:10;;;;;;;5.20;2.67;;;19.40;47.90;;;;;;4989052;28;20132;-80
2022/04/22 11:33:51;;;;;;;5.43;2.53;;;20.00;46.00;;;;;;4976325;28;20036;-80
2022/04/22 11:36:16;;;;;;;6.07;2.70;;;19.90;45.60;;;;;;4993305;28;20033;-80
2022/04/22 11:38:50;;;;;;;6.43;2.25;;;19.50;46.20;;;;;;4971724;28;20023;-80
2022/04/22 11:41:16;;;;;;;8.85;2.42;;;20.30;45.60;;;;;;4989946;28;20113;-80
2022/04/22 11:43:43;;;;;;;6.82;1.90;;;19.90;45.80;;;;;;4994606;28;20053;-80
2022/04/22 11:46:14;;;;;;;7.25;2.20;;;19.40;46.60;;;;;;4993355;28;20054;-80
2022/04/22 11:48:53;;;;;;;4.93;2.30;;;19.70;46.10;;;;;;4977123;28;20144;-80
2022/04/22 11:51:20;;;;;;;4.60;2.22;;;19.20;45.80;;;;;;4993441;28;20474;-80
2022/04/22 11:53:47;;;;;;;6.15;2.30;;;18.70;47.40;;;;;;4990867;28;20026;-80
2022/04/22 11:56:17;;;;;;;9.02;3.15;;;18.70;47.10;;;;;;4985665;28;20034;-79
2022/04/22 11:58:43;;;;;;;;;;;19.00;47.90;;;;;;4978234;28;20490;-79
2022/04/22 12:06:39;;;;;;;6.90;2.13;;;19.40;45.80;;;;;;4990384;28;20093;-79
2022/04/22 12:09:06;;;;;;;5.70;2.00;;;19.70;44.70;;;;;;4980931;28;20026;-81
2022/04/22 12:11:43;;;;;;;5.28;2.78;;;20.00;44.80;;;;;;4977238;28;20505;-82
2022/04/22 12:14:10;;;;;;;7.40;2.65;;;21.40;42.50;;;;;;4993154;28;20058;-82
2022/04/22 12:16:38;;;;;;;6.85;2.47;;;21.40;41.80;;;;;;4986169;28;20027;-82
2022/04/22 12:19:06;;;;;;;5.15;2.88;;;20.90;44.30;;;;;;4995406;28;20448;-81
2022/04/22 12:21:34;;;;;;;5.03;1.95;;;20.80;42.50;;;;;;4976155;28;20154;-82
2022/04/22 12:24:00;;;;;;;4.45;2.15;;;20.10;44.10;;;;;;4974260;28;20030;-82
2022/04/22 12:26:30;;;;;;;7.53;2.70;;;20.50;44.70;;;;;;4992020;28;20542;-82
2022/04/22 12:29:22;;;;;;;8.00;2.05;;;21.20;43.80;;;;;;4994630;28;20034;-82
2022/04/22 12:31:51;;;;;;;10.77;3.10;;;21.00;43.20;;;;;;4989882;28;20042;-81
2022/04/22 12:34:32;;;;;;;5.78;2.33;;;20.60;43.10;;;;;;4975972;28;20484;-81
2022/04/22 12:36:59;;;;;;;4.65;1.77;;;21.70;41.30;;;;;;4975916;28;20032;-81
2022/04/22 12:39:43;;;;;;;8.52;2.33;;;21.40;43.70;;;;;;4992925;28;20035;-82
2022/04/22 12:42:15;;;;;;;5.43;2.13;;;21.00;41.50;;;;;;4976448;28;20065;-82
2022/04/22 12:44:40;;;;;;;7.35;2.75;;;21.40;42.90;;;;;;4994416;28;20026;-82
2022/04/22 12:52:47;;;;;;;4.95;2.17;;;21.40;42.30;;;;;;4982994;28;20092;-83
2022/04/22 12:55:17;;;;;;;7.78;2.13;;;21.50;43.10;;;;;;4991024;28;20109;-82
2022/04/22 12:57:42;;;;;;;5.68;2.03;;;21.80;40.80;;;;;;4976087;28;20541;-82
2022/04/22 13:00:16;;;;;;;4.07;1.92;;;21.30;41.90;;;;;;4991134;28;20064;-80
2022/04/22 13:02:42;;;;;;;6.22;2.28;;;21.50;40.50;;;;;;4991213;28;20089;-80
2022/04/22 13:05:19;;;;;;;4.95;1.98;;;21.70;40.00;;;;;;4973878;28;20026;-80
2022/04/22 13:07:51;;;;;;;4.07;1.70;;;21.30;41.30;;;;;;4990643;28;20042;-80
2022/04/22 13:10:21;;;;;;;3.90;2.13;;;20.90;42.20;;;;;;4993457;28;20053;-79
2022/04/22 13:12:48;;;;;;;5.15;2.10;;;20.30;43.70;;;;;;4974845;28;20069;-79
2022/04/22 13:15:19;;;;;;;5.35;2.00;;;20.40;43.00;;;;;;4979181;28;20030;-79
2022/04/22 13:17:50;;;;;;;5.72;2.55;;;20.00;44.10;;;;;;4990977;28;20385;-79
2022/04/22 13:20:17;;;;;;;;;;;19.90;43.20;;;;;;4992595;28;20041;-79
2022/04/22 13:22:43;;;;;;;5.22;1.60;;;20.20;42.70;;;;;;4983189;28;19909;-79
2022/04/22 13:25:10;;;;;;;4.45;2.00;;;21.00;41.40;;;;;;4988899;28;20053;-79
2022/04/22 13:27:36;;;;;;;2.30;1.40;;;22.00;39.40;;;;;;4992721;28;20099;-80
2022/04/22 13:30:03;;;;;;;5.38;1.77;;;22.00;37.80;;;;;;4991159;28;20114;-80
2022/04/22 13:32:28;;;;;;;4.35;2.00;;;22.40;37.10;;;;;;4975045;28;20478;-80
2022/04/22 13:34:54;;;;;;;7.60;1.95;;;22.20;37.00;;;;;;4975379;28;20033;-80
2022/04/22 13:37:19;;;;;;;5.18;2.15;;;22.40;37.60;;;;;;4989356;28;20034;-80
2022/04/22 13:39:45;;;;;;;9.48;2.08;;;21.60;38.90;;;;;;4984357;28;20034;-80
2022/04/22 13:42:10;;;;;;;5.32;1.55;;;22.80;37.30;;;;;;4979299;28;20022;-80
2022/04/22 13:52:48;;;;;;;5.80;2.28;;;23.00;36.90;;;;;;4990198;28;20524;-81
2022/04/22 13:55:14;;;;;;;5.60;2.05;;;23.70;35.30;;;;;;4979003;28;20053;-80
2022/04/22 13:57:40;;;;;;;4.78;1.77;;;23.50;36.80;;;;;;4994466;28;20014;-80
2022/04/22 14:00:06;;;;;;;4.95;1.63;;;23.70;36.30;;;;;;4993534;28;20034;-80
2022/04/22 14:02:32;;;;;;;5.90;2.33;;;22.10;37.00;;;;;;4990731;28;20038;-80
2022/04/22 14:04:58;;;;;;;7.28;2.00;;;21.50;39.50;;;;;;4996384;28;20034;-80